Lakehead, California
Current Conditions -  °F | °C
As of 11:30 PM on Saturday 22 Nov 2014 (Local Time) from KO86 Reporting Station
Broken Clouds Broken Clouds  
Wind Chill: 34°   Ceiling: 400
Heat Index: 34°   Visibility: 10mi
Dew Point: 32°   Wind: 0mph
Humidity: 93%   Direction: NA
Pressure: 30.31"   Gusts: NA
Location:  40.9°N, 122.37°W
Report Text: KO86 230730Z AUTO 00000KT 10SM BKN004 01/00 A3031 RMK AO1
Loading
Personal Weather Stations






























Interactive Weather Map New forecast layout! Learn more

10-Day Weather Forecast

Advertisements
Track Severe Weather on mobile